Time;durP1;ratioP1;P1;durP2;ratioP2;P2;SDS_P1;SDS_P2;PMS_P1;PMS_P2;Temp;Humidity;BMP_temperature;BMP_pressure;BME280_temperature;BME280_humidity;BME280_pressure;Samples;Min_cycle;Max_cycle;Signal;HPM_P1;HPM_P2
2020/12/01 00:03:23;;;;;;;20.63;18.83;;;19.90;55.20;;;;;;15751351;28;20094;-62
2020/12/01 00:10:53;;;;;;;21.10;19.00;;;19.90;55.90;;;;;;15750795;28;20028;-63
2020/12/01 00:18:24;;;;;;;20.30;18.33;;;20.00;56.30;;;;;;15750297;28;20063;-62
2020/12/01 00:25:55;;;;;;;19.42;17.60;;;20.00;56.20;;;;;;15750708;28;20020;-63
2020/12/01 00:33:26;;;;;;;19.80;17.80;;;20.00;55.90;;;;;;15749594;28;20035;-63
2020/12/01 00:40:56;;;;;;;19.70;17.60;;;19.90;55.60;;;;;;15731310;28;20021;-63
2020/12/01 00:48:27;;;;;;;18.73;16.85;;;19.90;55.40;;;;;;15750110;28;20035;-62
2020/12/01 00:55:57;;;;;;;17.17;15.43;;;19.90;55.40;;;;;;15747687;28;20433;-61
2020/12/01 01:03:28;;;;;;;18.27;16.47;;;19.90;55.50;;;;;;15748016;28;20494;-62
2020/12/01 01:10:58;;;;;;;16.77;15.07;;;20.00;56.10;;;;;;15747627;28;20387;-63
2020/12/01 01:18:29;;;;;;;18.70;15.97;;;19.90;56.40;;;;;;15747545;28;20450;-63
2020/12/01 01:25:59;;;;;;;17.33;15.60;;;20.00;56.50;;;;;;15747693;28;20074;-63
2020/12/01 01:33:30;;;;;;;16.80;15.20;;;20.00;56.40;;;;;;15746937;28;20520;-63
2020/12/01 01:41:00;;;;;;;16.27;14.67;;;19.90;56.40;;;;;;15746740;28;20025;-63
2020/12/01 01:48:32;;;;;;;14.23;12.93;;;19.90;56.70;;;;;;15747782;28;20059;-63
2020/12/01 01:56:06;;;;;;;15.63;14.13;;;19.90;56.50;;;;;;15729868;28;20059;-63
2020/12/01 02:03:39;;;;;;;16.08;14.38;;;19.90;56.20;;;;;;15745907;28;20036;-63
2020/12/01 02:11:11;;;;;;;15.23;13.82;;;19.90;56.60;;;;;;15757852;28;20024;-62
2020/12/01 02:18:41;;;;;;;14.65;13.27;;;20.00;56.90;;;;;;15739915;28;20470;-62
2020/12/01 02:26:12;;;;;;;14.23;12.73;;;20.00;56.80;;;;;;15757158;28;20025;-62
2020/12/01 04:05:47;;;;;;;12.68;11.40;;;19.80;56.70;;;;;;16777016;22;20114;-62
2020/12/01 04:13:17;;;;;;;10.85;9.82;;;19.80;57.30;;;;;;15768310;28;20079;-62
2020/12/01 04:20:48;;;;;;;11.53;10.43;;;19.80;58.10;;;;;;15769217;28;20079;-64
2020/12/01 04:28:18;;;;;;;10.93;9.83;;;19.80;58.50;;;;;;15750950;28;21053;-62
2020/12/01 04:35:49;;;;;;;10.73;9.63;;;19.80;58.00;;;;;;15751184;28;20447;-62
2020/12/01 04:43:37;;;;;;;10.63;9.52;;;19.80;57.60;;;;;;15750427;28;20394;-62
2020/12/01 04:51:18;;;;;;;10.27;9.27;;;19.80;57.40;;;;;;15749679;28;20024;-62
2020/12/01 04:59:15;;;;;;;9.90;9.00;;;19.80;57.20;;;;;;15749124;28;20059;-61
2020/12/01 05:14:42;;;;;;;11.88;8.98;;;19.70;57.10;;;;;;15751361;28;20029;-62
2020/12/01 05:22:19;;;;;;;9.32;8.43;;;19.80;58.10;;;;;;15751059;28;20070;-62
2020/12/01 05:30:10;;;;;;;9.85;8.90;;;19.80;58.60;;;;;;15748846;28;20028;-62
2020/12/01 05:38:08;;;;;;;8.75;7.85;;;19.80;58.70;;;;;;15750690;28;20016;-62
2020/12/01 05:45:38;;;;;;;9.20;8.30;;;19.70;58.60;;;;;;15747678;28;20029;-61
2020/12/01 05:53:12;;;;;;;10.30;8.20;;;19.70;57.80;;;;;;15747135;28;20064;-61
2020/12/01 06:00:43;;;;;;;8.77;7.88;;;19.70;57.70;;;;;;15747225;28;20478;-61
2020/12/01 06:08:29;;;;;;;8.55;7.65;;;19.70;57.60;;;;;;15747417;28;20500;-61
2020/12/01 06:16:16;;;;;;;14.88;7.75;;;19.70;57.50;;;;;;15746922;28;20051;-61
2020/12/01 06:23:58;;;;;;;9.65;7.75;;;19.70;58.80;;;;;;15746767;28;20032;-64
2020/12/01 06:31:31;;;;;;;9.30;7.97;;;19.70;58.30;;;;;;15746208;28;20033;-64
2020/12/01 06:39:23;;;;;;;9.07;8.15;;;19.70;58.40;;;;;;15746095;28;20059;-64
2020/12/01 06:46:56;;;;;;;7.57;6.88;;;19.80;58.30;;;;;;15745667;28;20035;-64
2020/12/01 06:54:27;;;;;;;8.25;7.20;;;19.80;58.00;;;;;;15731477;28;20562;-60
2020/12/01 07:02:17;;;;;;;10.07;8.55;;;19.70;57.70;;;;;;15755452;28;20087;-60
2020/12/01 07:09:48;;;;;;;9.65;7.78;;;19.60;56.40;;;;;;15755944;28;20167;-60
2020/12/01 07:17:26;;;;;;;8.55;6.80;;;19.60;54.20;;;;;;15756010;28;20052;-60
2020/12/01 07:25:34;;;;;;;8.68;6.32;;;19.60;54.90;;;;;;15756328;28;20025;-60
2020/12/01 07:33:14;;;;;;;6.32;5.03;;;19.60;55.30;;;;;;15755120;28;20525;-60
2020/12/01 07:40:52;;;;;;;8.98;5.57;;;19.50;55.30;;;;;;15753775;28;20380;-60
2020/12/01 07:48:22;;;;;;;6.65;5.43;;;19.50;55.30;;;;;;15753802;28;20025;-60
2020/12/01 07:55:55;;;;;;;5.70;4.83;;;19.60;55.60;;;;;;15752968;28;20031;-60
2020/12/01 08:03:34;;;;;;;7.03;5.35;;;19.60;55.80;;;;;;15751921;28;20429;-60
2020/12/01 08:11:08;;;;;;;8.55;5.70;;;19.60;55.90;;;;;;15752890;28;20459;-60
2020/12/01 08:18:39;;;;;;;7.82;5.40;;;19.70;56.90;;;;;;15751607;28;20032;-60
2020/12/01 08:26:17;;;;;;;7.28;5.45;;;19.70;56.60;;;;;;15751665;28;20024;-60
2020/12/01 08:34:17;;;;;;;6.40;5.05;;;19.70;57.00;;;;;;15751266;28;20020;-60
2020/12/01 08:42:07;;;;;;;16.77;12.73;;;19.70;56.10;;;;;;15751209;28;20028;-60
2020/12/01 08:49:47;;;;;;;12.60;8.90;;;19.20;46.20;;;;;;15750258;28;20035;-60
2020/12/01 08:57:37;;;;;;;10.82;7.45;;;19.20;50.80;;;;;;15750047;28;20025;-60
2020/12/01 09:05:33;;;;;;;11.05;6.13;;;19.20;52.20;;;;;;15748466;28;20566;-60
2020/12/01 09:13:42;;;;;;;9.67;5.70;;;19.20;53.30;;;;;;15747899;28;20499;-62
2020/12/01 09:28:35;;;;;;;9.02;6.57;;;19.40;55.60;;;;;;15748129;28;20028;-62
2020/12/01 09:36:05;;;;;;;11.65;8.25;;;19.50;54.40;;;;;;15747114;28;20021;-63
2020/12/01 09:43:41;;;;;;;11.27;8.23;;;19.40;52.50;;;;;;15747284;28;20033;-62
2020/12/01 09:51:11;;;;;;;11.57;7.97;;;19.40;52.20;;;;;;15748065;28;20036;-61
2020/12/01 10:37:30;;;;;;;5.13;3.60;;;19.60;54.40;;;;;;15759150;28;20431;-58
2020/12/01 10:45:00;;;;;;;6.07;3.40;;;19.70;54.70;;;;;;15757071;28;20154;-57
2020/12/01 10:52:31;;;;;;;6.80;5.37;;;19.70;54.70;;;;;;15757099;28;20029;-58
2020/12/01 11:00:07;;;;;;;5.17;3.40;;;19.70;55.40;;;;;;15755925;28;20509;-58
2020/12/01 11:07:37;;;;;;;11.20;7.88;;;19.80;55.20;;;;;;15754906;28;20477;-64
2020/12/01 11:15:08;;;;;;;10.57;9.10;;;19.80;55.10;;;;;;15755086;28;20032;-64
2020/12/01 11:22:39;;;;;;;10.30;8.25;;;19.90;55.10;;;;;;15754562;28;20075;-63
2020/12/01 11:30:10;;;;;;;13.37;7.97;;;19.90;55.20;;;;;;15754359;28;20036;-65
2020/12/01 11:37:41;;;;;;;6.75;4.72;;;19.90;55.30;;;;;;15754233;28;20355;-58
2020/12/01 11:45:13;;;;;;;7.65;5.30;;;19.90;55.20;;;;;;15753394;28;20030;-57
2020/12/01 11:52:44;;;;;;;9.80;4.93;;;19.80;54.80;;;;;;15753719;28;20028;-59
2020/12/01 12:00:20;;;;;;;8.02;4.40;;;19.80;54.30;;;;;;15752684;28;20394;-58
2020/12/01 12:07:51;;;;;;;12.30;5.35;;;19.80;54.40;;;;;;15751825;28;20036;-58
2020/12/01 12:15:21;;;;;;;8.60;7.13;;;19.80;54.70;;;;;;15751304;28;20421;-58
2020/12/01 12:22:52;;;;;;;9.17;5.67;;;19.70;54.80;;;;;;15751782;28;20497;-58
2020/12/01 12:30:22;;;;;;;6.07;4.10;;;19.70;55.00;;;;;;15751263;28;20478;-57
2020/12/01 12:37:53;;;;;;;6.00;3.60;;;19.70;55.90;;;;;;15749725;28;21011;-57
2020/12/01 12:45:23;;;;;;;7.47;4.30;;;19.70;56.20;;;;;;15749436;28;20439;-58
2020/12/01 12:52:54;;;;;;;8.57;3.85;;;19.70;56.40;;;;;;15749339;28;20378;-58
2020/12/01 13:00:31;;;;;;;7.10;4.50;;;19.70;56.50;;;;;;15748823;28;20432;-57
2020/12/01 13:08:05;;;;;;;6.40;3.80;;;19.70;56.50;;;;;;15748766;28;20033;-57
2020/12/01 13:15:35;;;;;;;6.75;4.05;;;19.80;56.70;;;;;;15748129;28;20039;-58
2020/12/01 13:23:06;;;;;;;11.10;4.13;;;19.80;56.90;;;;;;15747685;28;20028;-58
2020/12/01 13:30:36;;;;;;;6.17;3.60;;;19.80;56.40;;;;;;15747222;28;20028;-58
2020/12/01 13:38:07;;;;;;;7.60;3.35;;;19.90;56.50;;;;;;15747429;28;20993;-58
2020/12/01 13:45:38;;;;;;;5.22;2.85;;;19.90;56.20;;;;;;15747205;28;20398;-57
2020/12/01 13:53:08;;;;;;;10.37;4.77;;;19.90;56.20;;;;;;15746685;28;20433;-58
2020/12/01 14:00:39;;;;;;;6.88;3.75;;;19.90;56.20;;;;;;15748064;28;20443;-58
2020/12/01 14:08:09;;;;;;;6.18;2.78;;;19.90;56.10;;;;;;15758880;28;20486;-58
2020/12/01 14:15:40;;;;;;;5.35;2.63;;;19.90;56.20;;;;;;15759093;28;20383;-57
2020/12/01 14:23:11;;;;;;;5.30;2.35;;;20.00;56.20;;;;;;15759456;28;20039;-57
2020/12/01 14:30:41;;;;;;;6.15;2.40;;;19.90;56.10;;;;;;15758111;28;20021;-57
2020/12/01 14:38:12;;;;;;;6.37;2.50;;;20.00;56.30;;;;;;15757354;28;20028;-57
2020/12/01 14:45:42;;;;;;;3.53;2.40;;;20.00;56.30;;;;;;15756588;28;20024;-57
2020/12/01 14:53:37;;;;;;;6.45;2.92;;;20.00;56.50;;;;;;15757213;28;20036;-57
2020/12/01 15:01:24;;;;;;;10.23;3.38;;;20.10;56.60;;;;;;15756193;28;20028;-58
2020/12/01 15:09:13;;;;;;;17.77;3.60;;;20.10;56.70;;;;;;15756040;28;20020;-58
2020/12/01 15:17:22;;;;;;;12.77;2.88;;;20.20;57.10;;;;;;15753773;28;20024;-58
2020/12/01 15:24:57;;;;;;;14.48;2.38;;;20.30;57.50;;;;;;15714354;28;20060;-59
2020/12/01 15:32:28;;;;;;;13.13;3.17;;;20.40;57.40;;;;;;15754400;28;20025;-58
2020/12/01 15:39:58;;;;;;;10.73;2.50;;;20.50;57.20;;;;;;15754171;28;20031;-58
2020/12/01 15:47:29;;;;;;;9.53;3.63;;;20.50;56.90;;;;;;15735116;28;20021;-59
2020/12/01 15:55:26;;;;;;;13.30;5.60;;;20.50;56.40;;;;;;15758583;28;20079;-59
2020/12/01 16:03:12;;;;;;;15.52;7.28;;;20.40;55.50;;;;;;15770765;22;20066;-61
2020/12/01 16:11:13;;;;;;;15.10;7.43;;;20.40;54.50;;;;;;15752023;28;20041;-61
2020/12/01 16:18:54;;;;;;;13.15;6.30;;;20.40;54.80;;;;;;15689851;28;20028;-61
2020/12/01 16:26:44;;;;;;;10.00;5.22;;;20.30;54.80;;;;;;15689193;28;20041;-61
2020/12/01 16:34:16;;;;;;;8.93;5.07;;;20.30;55.00;;;;;;15688175;28;20391;-60
2020/12/01 16:41:52;;;;;;;8.93;4.60;;;20.30;54.70;;;;;;15689648;28;20032;-60
2020/12/01 16:49:48;;;;;;;8.52;4.20;;;20.30;54.70;;;;;;15688127;28;20087;-65
2020/12/01 16:57:54;;;;;;;8.20;4.22;;;20.30;55.00;;;;;;15687146;28;20052;-61
2020/12/01 17:05:38;;;;;;;9.77;4.00;;;20.40;55.30;;;;;;15686375;28;20033;-59
2020/12/01 17:13:45;;;;;;;11.45;4.20;;;20.50;55.60;;;;;;15686440;28;20036;-64
2020/12/01 17:21:16;;;;;;;12.77;4.93;;;20.70;56.00;;;;;;15686013;28;20024;-66
2020/12/01 17:29:00;;;;;;;6.95;4.38;;;20.80;58.00;;;;;;15668317;28;20052;-66
2020/12/01 17:36:56;;;;;;;11.63;5.68;;;20.80;57.40;;;;;;15667059;28;20029;-63
2020/12/01 17:44:37;;;;;;;9.25;5.95;;;20.90;59.70;;;;;;15685036;28;20028;-63
2020/12/01 17:52:16;;;;;;;9.43;6.00;;;20.90;59.40;;;;;;15684714;28;20024;-63
2020/12/01 17:59:47;;;;;;;12.25;6.35;;;21.00;59.50;;;;;;15684682;28;20017;-62
2020/12/01 18:07:19;;;;;;;10.02;5.13;;;20.90;62.30;;;;;;15684052;28;20116;-61
2020/12/01 18:15:05;;;;;;;9.85;5.45;;;21.00;60.00;;;;;;15684071;28;20552;-60
2020/12/01 18:23:01;;;;;;;16.65;6.63;;;21.10;61.30;;;;;;15684816;28;20029;-62
2020/12/01 18:30:35;;;;;;;15.98;7.20;;;21.20;61.70;;;;;;15683802;28;20028;-63
2020/12/01 18:38:12;;;;;;;19.20;6.97;;;21.20;59.80;;;;;;15683337;28;20048;-63
2020/12/01 18:45:46;;;;;;;21.05;8.23;;;21.30;59.00;;;;;;15683551;28;20391;-62
2020/12/01 18:53:28;;;;;;;17.10;7.07;;;21.30;58.30;;;;;;15693451;28;20025;-62
2020/12/01 19:01:03;;;;;;;16.23;6.70;;;21.30;58.50;;;;;;15693612;28;20033;-61
2020/12/01 19:08:34;;;;;;;15.03;6.70;;;21.30;58.50;;;;;;15694146;28;20472;-61
2020/12/01 19:16:05;;;;;;;19.08;9.45;;;21.20;58.10;;;;;;15694708;28;20431;-61
2020/12/01 19:23:37;;;;;;;26.95;10.00;;;20.80;55.00;;;;;;15692895;28;20032;-61
2020/12/01 19:31:08;;;;;;;15.48;8.63;;;20.80;56.10;;;;;;15691891;28;20044;-61
2020/12/01 19:38:39;;;;;;;19.95;7.50;;;20.80;56.60;;;;;;15692468;28;20025;-61
2020/12/01 19:46:09;;;;;;;16.03;7.07;;;20.80;56.80;;;;;;15673463;28;20033;-61
2020/12/01 19:53:40;;;;;;;14.90;7.47;;;20.80;57.00;;;;;;15690636;28;20464;-61
2020/12/01 20:01:14;;;;;;;16.77;7.00;;;20.80;57.10;;;;;;15689631;28;20037;-61
2020/12/01 20:08:45;;;;;;;14.38;6.93;;;20.80;57.40;;;;;;15691489;28;20025;-61
2020/12/01 20:16:16;;;;;;;12.15;6.53;;;20.80;57.20;;;;;;15671442;28;20064;-61
2020/12/01 20:23:47;;;;;;;12.65;6.05;;;20.80;56.90;;;;;;15689896;28;20116;-61
2020/12/01 20:31:18;;;;;;;21.15;12.77;;;20.80;56.70;;;;;;15690567;28;20436;-61
2020/12/01 20:39:26;;;;;;;15.18;8.30;;;20.60;54.00;;;;;;15688632;28;20110;-61
2020/12/01 20:46:57;;;;;;;17.10;8.35;;;20.70;56.20;;;;;;15688451;28;20104;-61
2020/12/01 20:54:28;;;;;;;12.82;7.57;;;20.70;56.40;;;;;;15669337;28;20458;-61
2020/12/01 21:01:59;;;;;;;12.13;7.05;;;20.70;56.40;;;;;;15668747;28;20372;-61
2020/12/01 21:09:30;;;;;;;10.75;6.75;;;20.70;56.40;;;;;;15686184;28;20064;-61
2020/12/01 21:17:04;;;;;;;14.00;6.47;;;20.60;56.50;;;;;;15685168;28;20082;-61
2020/12/01 21:24:35;;;;;;;9.57;6.03;;;20.60;56.60;;;;;;15685620;28;20530;-61
2020/12/01 21:32:13;;;;;;;11.55;6.55;;;20.60;56.60;;;;;;15685157;28;20519;-61
2020/12/01 21:39:44;;;;;;;10.55;6.00;;;20.50;56.50;;;;;;15686423;28;20521;-61
2020/12/01 21:47:19;;;;;;;10.95;6.43;;;20.50;56.60;;;;;;15685576;28;20132;-61
2020/12/01 21:55:14;;;;;;;8.53;5.77;;;20.50;56.60;;;;;;15685308;28;20033;-61
2020/12/01 22:02:56;;;;;;;10.00;5.93;;;20.40;56.60;;;;;;15685432;28;20033;-61
2020/12/01 22:10:40;;;;;;;10.75;5.88;;;20.40;56.60;;;;;;15684872;28;20029;-61
2020/12/01 22:18:11;;;;;;;9.70;6.10;;;20.40;56.90;;;;;;15685271;28;20038;-61
2020/12/01 22:26:05;;;;;;;10.85;5.47;;;20.40;57.10;;;;;;15697002;28;20032;-61
2020/12/01 22:33:54;;;;;;;8.65;5.22;;;20.40;57.10;;;;;;15681480;28;20049;-62
2020/12/01 22:41:48;;;;;;;9.88;5.28;;;20.40;57.00;;;;;;15695989;28;20021;-62
2020/12/01 22:49:28;;;;;;;10.00;6.05;;;20.30;57.00;;;;;;15694812;28;20033;-62
2020/12/01 22:57:36;;;;;;;7.88;5.60;;;20.30;57.00;;;;;;15694265;28;20531;-62
2020/12/01 23:05:06;;;;;;;10.77;6.03;;;20.30;57.00;;;;;;15693717;28;20036;-61
2020/12/01 23:12:46;;;;;;;9.00;6.03;;;20.30;57.00;;;;;;15693133;28;20061;-61
2020/12/01 23:20:21;;;;;;;10.93;5.50;;;20.30;56.90;;;;;;15693162;28;20032;-61
2020/12/01 23:27:58;;;;;;;7.93;5.03;;;20.30;56.80;;;;;;15692400;28;20033;-62
2020/12/01 23:35:33;;;;;;;7.75;5.22;;;20.30;56.80;;;;;;15690887;28;20033;-61
2020/12/01 23:43:31;;;;;;;8.00;5.75;;;20.40;56.80;;;;;;15691464;28;20029;-62
2020/12/01 23:51:05;;;;;;;9.18;5.13;;;20.30;56.80;;;;;;15691153;28;20025;-61
2020/12/01 23:58:36;;;;;;;8.10;4.93;;;20.30;56.80;;;;;;15691419;28;20609;-61
